Time;durP1;ratioP1;P1;durP2;ratioP2;P2;SDS_P1;SDS_P2;PMS_P1;PMS_P2;Temp;Humidity;BMP_temperature;BMP_pressure;BME280_temperature;BME280_humidity;BME280_pressure;Samples;Min_cycle;Max_cycle;Signal;HPM_P1;HPM_P2
2021/12/16 00:05:19;;;;;;;40.70;26.30;;;8.30;99.90;;;;;;5006102;28;20412;-86
2021/12/16 00:09:54;;;;;;;44.60;26.45;;;8.20;99.90;;;;;;5006270;28;20117;-85
2021/12/16 00:34:14;;;;;;;49.03;28.80;;;8.50;99.90;;;;;;5005770;28;20059;-85
2021/12/16 00:36:43;;;;;;;51.10;30.45;;;8.50;99.90;;;;;;5007243;28;20043;-85
2021/12/16 00:39:12;;;;;;;46.92;28.55;;;8.60;99.90;;;;;;5007979;28;20039;-85
2021/12/16 00:41:41;;;;;;;48.00;29.42;;;8.60;99.90;;;;;;5005814;28;20035;-85
2021/12/16 00:44:19;;;;;;;48.90;29.98;;;8.70;99.90;;;;;;5020371;28;20056;-86
2021/12/16 00:49:32;;;;;;;46.95;29.35;;;8.70;99.90;;;;;;5007652;28;20492;-86
2021/12/16 00:54:57;;;;;;;47.05;29.13;;;8.70;99.90;;;;;;5004415;28;20964;-85
2021/12/16 00:57:23;;;;;;;45.30;29.92;;;8.70;99.90;;;;;;5010598;28;20055;-85
2021/12/16 00:59:50;;;;;;;46.72;28.42;;;8.70;99.90;;;;;;4990462;28;20079;-86
2021/12/16 01:51:04;;;;;;;52.90;30.10;;;8.70;99.90;;;;;;5004446;28;20481;-85
2021/12/16 01:54:14;;;;;;;48.17;29.30;;;8.60;99.90;;;;;;5010499;28;20108;-85
2021/12/16 01:59:03;;;;;;;54.00;30.55;;;8.50;99.90;;;;;;4997311;28;20449;-85
2021/12/16 02:01:33;;;;;;;48.55;29.45;;;8.40;99.90;;;;;;5003675;28;20120;-86
2021/12/16 02:04:16;;;;;;;53.20;29.70;;;8.40;99.90;;;;;;5007730;28;20157;-86
2021/12/16 02:09:34;;;;;;;48.55;28.45;;;8.30;99.90;;;;;;5009062;28;20040;-85
2021/12/16 02:12:21;;;;;;;46.22;28.23;;;8.30;99.90;;;;;;5006280;28;20035;-86
2021/12/16 02:28:50;;;;;;;53.92;30.95;;;8.20;99.90;;;;;;4995905;28;20572;-85
2021/12/16 02:36:45;;;;;;;50.10;31.02;;;8.30;99.90;;;;;;4992725;28;20130;-86
2021/12/16 02:39:27;;;;;;;57.60;32.13;;;8.30;99.90;;;;;;5002769;28;20040;-86
2021/12/16 02:41:57;;;;;;;54.50;31.10;;;8.30;99.90;;;;;;4988617;28;20563;-85
2021/12/16 02:49:40;;;;;;;52.72;32.95;;;8.50;99.90;;;;;;5008730;28;20083;-86
2021/12/16 02:52:07;;;;;;;59.08;33.35;;;8.50;99.90;;;;;;5005823;28;20048;-86
2021/12/16 02:54:33;;;;;;;56.33;32.78;;;8.40;99.90;;;;;;5005686;28;20304;-85
2021/12/16 02:56:59;;;;;;;65.80;34.58;;;8.50;99.90;;;;;;5003134;28;20047;-85
2021/12/16 02:59:28;;;;;;;58.47;33.65;;;8.50;99.90;;;;;;4985059;28;20048;-86
2021/12/16 03:02:00;;;;;;;62.88;34.55;;;8.50;99.90;;;;;;5006194;28;20215;-85
2021/12/16 03:04:28;;;;;;;60.75;33.67;;;8.50;99.90;;;;;;4985126;28;20071;-85
2021/12/16 03:06:57;;;;;;;64.53;34.83;;;8.50;99.90;;;;;;5004848;28;20048;-86
2021/12/16 03:09:51;;;;;;;61.42;34.10;;;8.50;99.90;;;;;;4982906;28;20585;-85
2021/12/16 03:14:51;;;;;;;65.30;34.50;;;8.50;99.90;;;;;;5003573;28;20920;-85
2021/12/16 03:17:25;;;;;;;63.70;34.70;;;8.50;99.90;;;;;;5021267;28;20125;-85
2021/12/16 03:22:56;;;;;;;61.10;34.22;;;8.60;99.90;;;;;;4999996;28;20052;-86
2021/12/16 03:36:07;;;;;;;67.75;35.88;;;8.60;99.90;;;;;;5014950;28;20040;-85
2021/12/16 03:38:40;;;;;;;65.10;35.10;;;8.60;99.90;;;;;;5007767;28;20063;-85
2021/12/16 03:41:07;;;;;;;69.50;35.28;;;8.60;99.90;;;;;;5019544;28;20116;-86
2021/12/16 03:43:34;;;;;;;64.55;34.13;;;8.60;99.90;;;;;;5025440;28;20052;-86
2021/12/16 03:49:01;;;;;;;61.72;34.60;;;8.60;99.90;;;;;;5015946;28;20052;-85
2021/12/16 03:51:38;;;;;;;69.43;35.63;;;8.60;99.90;;;;;;5005159;28;20051;-86
2021/12/16 03:54:13;;;;;;;66.43;35.70;;;8.60;99.90;;;;;;5001858;28;20151;-85
2021/12/16 03:56:40;;;;;;;61.40;34.63;;;8.60;99.90;;;;;;5002847;28;20449;-86
2021/12/16 03:59:08;;;;;;;68.63;34.67;;;8.60;99.90;;;;;;5006512;28;20054;-85
2021/12/16 04:01:35;;;;;;;69.10;34.90;;;8.60;99.90;;;;;;5004551;28;20056;-86
2021/12/16 04:04:02;;;;;;;67.35;35.28;;;8.60;99.90;;;;;;4997540;28;20158;-86
2021/12/16 04:06:32;;;;;;;72.18;35.40;;;8.60;99.90;;;;;;5005701;28;20104;-86
2021/12/16 04:08:58;;;;;;;64.30;35.70;;;8.70;99.90;;;;;;5007826;28;20051;-86
2021/12/16 04:11:32;;;;;;;63.15;33.42;;;8.60;99.90;;;;;;5003426;28;20047;-85
2021/12/16 04:14:00;;;;;;;69.25;34.13;;;8.60;99.90;;;;;;5005223;28;20184;-86
2021/12/16 04:16:36;;;;;;;66.50;34.30;;;8.60;99.90;;;;;;4990631;28;20059;-86
2021/12/16 04:19:12;;;;;;;70.85;35.65;;;8.60;99.90;;;;;;5003601;28;20071;-86
2021/12/16 04:21:41;;;;;;;65.47;33.83;;;8.60;99.90;;;;;;4997905;28;20965;-85
2021/12/16 04:24:08;;;;;;;73.68;35.05;;;8.70;99.90;;;;;;5000707;28;20086;-85
2021/12/16 04:26:34;;;;;;;73.95;34.15;;;8.70;99.90;;;;;;4984471;28;20840;-86
2021/12/16 04:29:03;;;;;;;66.28;34.03;;;8.70;99.90;;;;;;5002355;28;20330;-86
2021/12/16 04:31:29;;;;;;;72.50;34.28;;;8.70;99.90;;;;;;4976314;28;20067;-85
2021/12/16 04:33:55;;;;;;;64.20;33.47;;;8.60;99.90;;;;;;4968343;28;20075;-86
2021/12/16 04:36:21;;;;;;;58.53;30.92;;;8.70;99.90;;;;;;4985719;28;20569;-85
2021/12/16 04:38:48;;;;;;;63.40;31.77;;;8.70;99.90;;;;;;4999258;28;20524;-85
2021/12/16 04:41:15;;;;;;;61.35;33.15;;;8.70;99.90;;;;;;4988352;28;20044;-86
2021/12/16 04:43:50;;;;;;;58.53;31.73;;;8.70;99.90;;;;;;5001181;28;20120;-85
2021/12/16 04:46:21;;;;;;;68.53;32.78;;;8.70;99.90;;;;;;5004302;28;20044;-86
2021/12/16 04:48:51;;;;;;;58.60;30.77;;;8.80;99.90;;;;;;5005028;28;20066;-86
2021/12/16 04:51:20;;;;;;;63.90;32.13;;;8.80;99.90;;;;;;4987467;28;20068;-86
2021/12/16 04:53:47;;;;;;;64.53;32.33;;;8.80;99.90;;;;;;5003097;28;20544;-86
2021/12/16 04:56:15;;;;;;;66.07;33.17;;;8.80;99.90;;;;;;5008572;28;20913;-86
2021/12/16 04:58:44;;;;;;;70.47;33.85;;;8.80;99.90;;;;;;4983345;28;20145;-86
2021/12/16 05:01:10;;;;;;;63.85;33.42;;;8.80;99.90;;;;;;5004623;28;20807;-86
2021/12/16 05:03:36;;;;;;;64.18;33.75;;;8.90;99.90;;;;;;5010730;28;20048;-86
2021/12/16 05:06:04;;;;;;;64.13;33.20;;;8.90;99.90;;;;;;5005524;28;20059;-86
2021/12/16 05:08:30;;;;;;;68.03;34.05;;;8.80;99.90;;;;;;5008956;28;20051;-86
2021/12/16 05:10:58;;;;;;;66.13;34.42;;;8.90;99.90;;;;;;5007848;28;20055;-86
2021/12/16 05:13:26;;;;;;;65.03;32.97;;;8.90;99.90;;;;;;5005981;28;20215;-86
2021/12/16 05:15:54;;;;;;;61.88;32.67;;;8.90;99.90;;;;;;5002374;28;20213;-86
2021/12/16 05:18:30;;;;;;;63.35;32.53;;;8.90;99.90;;;;;;5008685;28;20430;-86
2021/12/16 05:20:59;;;;;;;64.93;32.80;;;8.90;99.90;;;;;;5003361;28;20748;-87
2021/12/16 05:28:40;;;;;;;62.65;31.60;;;8.90;99.90;;;;;;5004078;28;20647;-86
2021/12/16 05:31:10;;;;;;;64.00;33.10;;;8.90;99.90;;;;;;5007684;28;20075;-87
2021/12/16 05:33:36;;;;;;;63.25;32.47;;;8.90;99.90;;;;;;4984450;28;20869;-86
2021/12/16 05:36:03;;;;;;;63.38;31.90;;;8.90;99.90;;;;;;5006149;28;20488;-86
2021/12/16 05:38:29;;;;;;;67.15;33.05;;;8.90;99.90;;;;;;5003132;28;20626;-86
2021/12/16 05:40:57;;;;;;;64.13;32.80;;;8.90;99.90;;;;;;4999564;28;20056;-86
2021/12/16 05:43:25;;;;;;;63.70;33.70;;;8.90;99.90;;;;;;4975032;28;20058;-86
2021/12/16 05:45:56;;;;;;;67.70;32.50;;;8.90;99.90;;;;;;4999945;28;20441;-86
2021/12/16 05:48:27;;;;;;;60.55;31.83;;;8.90;99.90;;;;;;5004216;28;20043;-87
2021/12/16 05:50:56;;;;;;;64.43;31.17;;;8.90;99.90;;;;;;5004510;28;20043;-86
2021/12/16 05:53:23;;;;;;;64.97;33.55;;;8.90;99.90;;;;;;5003597;28;20893;-86
2021/12/16 05:55:50;;;;;;;64.72;32.67;;;8.90;99.90;;;;;;5003656;28;20441;-86
2021/12/16 05:58:19;;;;;;;65.53;32.42;;;8.80;99.90;;;;;;5000857;28;20043;-86
2021/12/16 06:00:52;;;;;;;63.15;31.80;;;8.80;99.90;;;;;;4980286;28;20043;-87
2021/12/16 06:03:21;;;;;;;61.07;32.73;;;8.80;99.90;;;;;;5002471;28;20047;-86
2021/12/16 06:05:48;;;;;;;60.95;32.92;;;8.90;99.90;;;;;;5004215;28;20048;-86
2021/12/16 06:08:14;;;;;;;62.30;32.42;;;8.80;99.90;;;;;;5006892;28;20446;-86
2021/12/16 06:13:48;;;;;;;61.80;32.63;;;8.90;99.90;;;;;;4959690;28;20073;-86
2021/12/16 06:27:15;;;;;;;57.92;31.23;;;8.90;99.90;;;;;;4958536;28;20127;-86
2021/12/16 06:29:47;;;;;;;58.67;31.42;;;9.00;99.90;;;;;;5001122;28;20059;-87
2021/12/16 06:32:14;;;;;;;55.05;31.67;;;9.00;99.90;;;;;;4976452;28;20118;-86
2021/12/16 06:34:41;;;;;;;56.50;31.67;;;9.00;99.90;;;;;;4982601;28;20347;-85
2021/12/16 06:37:07;;;;;;;58.75;31.95;;;9.00;99.90;;;;;;4982802;28;20055;-87
2021/12/16 06:39:34;;;;;;;53.08;30.50;;;9.00;99.90;;;;;;4962596;28;20544;-87
2021/12/16 06:41:59;;;;;;;56.88;31.70;;;9.00;99.90;;;;;;4977830;28;21166;-86
2021/12/16 06:44:35;;;;;;;53.85;32.47;;;9.00;99.90;;;;;;4986400;28;20055;-86
2021/12/16 06:47:06;;;;;;;57.40;32.95;;;9.00;99.90;;;;;;5005749;28;21054;-86
2021/12/16 06:49:34;;;;;;;56.90;32.45;;;9.00;99.90;;;;;;4986912;28;20052;-86
2021/12/16 06:52:04;;;;;;;54.97;31.13;;;9.00;99.90;;;;;;4950695;28;20074;-86
2021/12/16 06:54:41;;;;;;;60.78;33.13;;;9.00;99.90;;;;;;4968364;28;20918;-86
2021/12/16 06:57:34;;;;;;;55.08;32.08;;;9.00;99.90;;;;;;4985474;28;20541;-86
2021/12/16 07:00:27;;;;;;;57.75;32.40;;;9.00;99.90;;;;;;4986400;28;20062;-86
2021/12/16 07:02:59;;;;;;;55.83;32.20;;;9.00;99.90;;;;;;4974381;28;20473;-86
2021/12/16 07:05:34;;;;;;;56.83;32.70;;;9.00;99.90;;;;;;4984506;28;20063;-86
2021/12/16 07:08:02;;;;;;;57.28;31.85;;;9.00;99.90;;;;;;4988303;28;20360;-86
2021/12/16 07:10:31;;;;;;;55.47;30.80;;;9.00;99.90;;;;;;4985931;28;20412;-86
2021/12/16 07:13:01;;;;;;;56.50;32.95;;;8.90;99.90;;;;;;4986118;28;20436;-86
2021/12/16 07:15:29;;;;;;;57.25;31.67;;;8.90;99.90;;;;;;4988273;28;20924;-86
2021/12/16 07:17:56;;;;;;;56.03;31.33;;;8.90;99.90;;;;;;5001191;28;20627;-86
2021/12/16 07:20:28;;;;;;;56.53;31.95;;;8.90;99.90;;;;;;5002540;28;20047;-84
2021/12/16 07:22:56;;;;;;;60.95;32.90;;;8.90;99.90;;;;;;5010088;28;20043;-88
2021/12/16 07:25:22;;;;;;;57.35;32.10;;;8.90;99.90;;;;;;5000036;28;20058;-87
2021/12/16 07:27:48;;;;;;;54.25;32.42;;;8.90;99.90;;;;;;5007915;28;20050;-86
2021/12/16 07:30:17;;;;;;;54.33;31.30;;;8.80;99.90;;;;;;5009944;28;20441;-86
2021/12/16 07:32:44;;;;;;;53.42;30.92;;;8.70;99.90;;;;;;5004935;28;20544;-85
2021/12/16 07:35:14;;;;;;;55.20;32.15;;;8.80;99.90;;;;;;4971140;28;20126;-85
2021/12/16 07:37:40;;;;;;;50.58;31.75;;;8.80;99.90;;;;;;5010387;28;20114;-85
2021/12/16 07:40:08;;;;;;;58.72;32.55;;;8.80;99.90;;;;;;4976936;28;20472;-86
2021/12/16 07:42:45;;;;;;;54.45;31.17;;;8.70;99.90;;;;;;5008654;28;20043;-87
2021/12/16 07:45:17;;;;;;;53.90;31.13;;;8.80;99.90;;;;;;5004925;28;20132;-87
2021/12/16 07:47:45;;;;;;;51.40;31.20;;;8.80;99.90;;;;;;5006359;28;20043;-87
2021/12/16 07:50:12;;;;;;;51.97;31.38;;;8.70;99.90;;;;;;5003190;28;20131;-86
2021/12/16 07:52:40;;;;;;;54.17;29.70;;;8.80;99.90;;;;;;4972773;28;20414;-85
2021/12/16 07:55:08;;;;;;;52.53;29.83;;;8.70;99.90;;;;;;5004950;28;20054;-85
2021/12/16 07:57:33;;;;;;;51.35;30.75;;;8.70;99.90;;;;;;4987633;28;20064;-86
2021/12/16 07:59:59;;;;;;;54.70;30.15;;;8.60;99.90;;;;;;5007673;28;20059;-85
2021/12/16 08:02:25;;;;;;;54.67;30.88;;;8.60;99.90;;;;;;4986131;28;20051;-86
2021/12/16 08:04:52;;;;;;;51.58;29.90;;;8.50;99.90;;;;;;5007750;28;20459;-87
2021/12/16 08:07:21;;;;;;;52.75;29.00;;;8.40;99.90;;;;;;5005421;28;20540;-85
2021/12/16 08:09:50;;;;;;;55.42;30.83;;;8.30;99.90;;;;;;5004447;28;20042;-86
2021/12/16 08:12:18;;;;;;;60.78;30.98;;;8.30;99.90;;;;;;5002845;28;20831;-86
2021/12/16 08:14:46;;;;;;;55.00;30.65;;;8.30;99.90;;;;;;4987033;28;20048;-86
2021/12/16 08:17:13;;;;;;;54.65;31.20;;;8.30;99.90;;;;;;5005101;28;20495;-85
2021/12/16 08:19:39;;;;;;;54.42;30.98;;;8.20;99.90;;;;;;5003331;28;20130;-85
2021/12/16 08:22:05;;;;;;;58.78;31.48;;;8.30;99.90;;;;;;5001335;28;20044;-84
2021/12/16 08:24:31;;;;;;;54.13;32.65;;;8.30;99.90;;;;;;4984744;28;20046;-84
2021/12/16 08:26:57;;;;;;;47.88;29.33;;;8.30;99.90;;;;;;4987947;28;20777;-84
2021/12/16 08:29:24;;;;;;;49.97;30.40;;;8.20;99.90;;;;;;5004531;28;20108;-84
2021/12/16 08:31:53;;;;;;;57.63;31.80;;;8.20;99.90;;;;;;5006975;28;20051;-84
2021/12/16 08:34:19;;;;;;;61.72;30.40;;;8.20;99.90;;;;;;4987197;28;20039;-85
2021/12/16 08:36:46;;;;;;;58.78;29.50;;;8.20;99.90;;;;;;5007088;28;20047;-85
2021/12/16 08:39:12;;;;;;;52.70;29.85;;;8.10;99.90;;;;;;5007647;28;20044;-85
2021/12/16 08:41:45;;;;;;;56.88;30.00;;;8.10;99.90;;;;;;4983942;28;20453;-84
2021/12/16 08:44:11;;;;;;;61.22;30.98;;;8.20;99.90;;;;;;5000883;28;20593;-85
2021/12/16 08:46:46;;;;;;;53.13;30.33;;;8.10;99.90;;;;;;5009130;28;20035;-85
2021/12/16 08:49:12;;;;;;;55.45;30.38;;;8.20;99.90;;;;;;5005015;28;20128;-86
2021/12/16 08:51:44;;;;;;;54.53;31.13;;;8.20;99.90;;;;;;4982150;28;20904;-83
2021/12/16 08:54:10;;;;;;;54.30;31.02;;;8.10;99.90;;;;;;5007788;28;20156;-84
2021/12/16 08:56:36;;;;;;;62.28;31.85;;;8.20;99.90;;;;;;5003538;28;20645;-85
2021/12/16 08:59:03;;;;;;;59.50;32.38;;;8.30;99.90;;;;;;5005241;28;20048;-85
2021/12/16 09:01:32;;;;;;;58.33;32.13;;;8.30;99.90;;;;;;5004907;28;20146;-85
2021/12/16 09:03:58;;;;;;;57.25;33.10;;;8.40;99.90;;;;;;4984697;28;20047;-84
2021/12/16 09:06:25;;;;;;;60.63;33.83;;;8.40;99.90;;;;;;4997188;28;20112;-84
2021/12/16 09:08:51;;;;;;;66.70;34.00;;;8.50;99.90;;;;;;4998645;28;20442;-86
2021/12/16 09:11:22;;;;;;;72.88;35.50;;;8.50;99.90;;;;;;4999822;28;20140;-85
2021/12/16 09:13:50;;;;;;;74.35;35.33;;;8.70;99.90;;;;;;4989692;28;20839;-85
2021/12/16 09:16:20;;;;;;;84.68;37.50;;;8.70;99.90;;;;;;5003274;28;20047;-84
2021/12/16 09:18:46;;;;;;;87.20;37.92;;;8.80;99.90;;;;;;4999094;28;20171;-87
2021/12/16 09:21:19;;;;;;;91.30;36.65;;;8.90;99.90;;;;;;4988962;28;20090;-85
2021/12/16 09:23:46;;;;;;;89.65;36.92;;;9.00;99.90;;;;;;5013427;28;20066;-85
2021/12/16 09:26:13;;;;;;;77.93;35.92;;;9.00;99.90;;;;;;5008776;28;20115;-85
2021/12/16 09:28:39;;;;;;;82.25;34.92;;;9.10;99.90;;;;;;5003458;28;20122;-84
2021/12/16 09:31:11;;;;;;;79.13;34.83;;;9.20;99.90;;;;;;5028180;28;20048;-85
2021/12/16 09:33:42;;;;;;;76.90;35.20;;;9.20;99.90;;;;;;5003593;28;20046;-84
2021/12/16 09:36:09;;;;;;;75.10;34.47;;;9.30;99.90;;;;;;4991703;28;20597;-85
2021/12/16 09:38:35;;;;;;;82.07;33.50;;;9.40;99.90;;;;;;5004267;28;20048;-84
2021/12/16 09:41:01;;;;;;;61.67;31.85;;;9.40;99.90;;;;;;5005344;28;20538;-82
2021/12/16 09:43:31;;;;;;;73.15;30.63;;;9.50;99.90;;;;;;5007055;28;20046;-83
2021/12/16 09:46:01;;;;;;;63.38;31.00;;;9.50;99.90;;;;;;5023115;28;20833;-84
2021/12/16 09:48:27;;;;;;;70.75;31.27;;;9.50;99.90;;;;;;5018030;28;20120;-87
2021/12/16 09:50:54;;;;;;;61.47;29.88;;;9.40;99.90;;;;;;4992041;28;20047;-82
2021/12/16 09:53:20;;;;;;;56.63;29.30;;;9.30;99.90;;;;;;5014686;28;20074;-83
2021/12/16 09:55:56;;;;;;;59.42;28.90;;;9.30;99.90;;;;;;5013290;28;20511;-82
2021/12/16 09:58:22;;;;;;;60.05;29.90;;;9.30;99.90;;;;;;4988099;28;20051;-86
2021/12/16 10:00:48;;;;;;;73.88;30.80;;;9.30;99.90;;;;;;5020973;28;20505;-85
2021/12/16 10:03:14;;;;;;;57.33;29.08;;;9.30;99.90;;;;;;5027074;28;20074;-85
2021/12/16 10:05:40;;;;;;;55.97;28.05;;;9.30;99.90;;;;;;5032030;28;20480;-84
2021/12/16 10:08:09;;;;;;;54.22;28.42;;;9.30;99.90;;;;;;5028304;28;20074;-85
2021/12/16 10:10:35;;;;;;;61.20;28.30;;;9.30;99.90;;;;;;5021663;28;20047;-85
2021/12/16 10:13:03;;;;;;;55.03;28.15;;;9.40;99.90;;;;;;5024128;28;20210;-86
2021/12/16 10:18:07;;;;;;;68.97;28.65;;;9.40;99.90;;;;;;4996066;28;21037;-86
2021/12/16 10:20:41;;;;;;;72.10;29.35;;;9.40;99.90;;;;;;4972141;28;20056;-85
2021/12/16 10:23:14;;;;;;;63.33;27.48;;;9.30;99.90;;;;;;4982644;28;20075;-85
2021/12/16 10:25:46;;;;;;;64.20;28.27;;;9.30;99.90;;;;;;4985003;28;20143;-85
2021/12/16 10:28:30;;;;;;;59.42;27.92;;;9.40;99.90;;;;;;4988030;28;20335;-85
2021/12/16 10:31:09;;;;;;;60.80;26.13;;;9.40;99.90;;;;;;4988813;28;20043;-86
2021/12/16 10:33:40;;;;;;;59.75;27.88;;;9.30;99.90;;;;;;4986841;28;20052;-85
2021/12/16 10:36:29;;;;;;;60.50;28.17;;;9.40;99.90;;;;;;4968589;28;20044;-86
2021/12/16 10:38:55;;;;;;;57.42;28.00;;;9.40;99.90;;;;;;4970005;28;20513;-87
2021/12/16 10:41:24;;;;;;;56.90;26.67;;;9.40;99.90;;;;;;4986212;28;20125;-85
2021/12/16 10:44:17;;;;;;;53.70;26.90;;;9.50;99.90;;;;;;4986991;28;20075;-85
2021/12/16 10:46:59;;;;;;;49.55;26.17;;;9.50;99.90;;;;;;4966374;28;20537;-84
2021/12/16 10:49:30;;;;;;;46.15;25.10;;;9.50;99.90;;;;;;4983867;28;20548;-83
2021/12/16 10:52:00;;;;;;;43.72;26.30;;;9.50;99.90;;;;;;4984207;28;20447;-82
2021/12/16 10:54:37;;;;;;;49.03;25.67;;;9.50;99.90;;;;;;4985752;28;20070;-83
2021/12/16 10:57:09;;;;;;;51.00;25.05;;;9.60;99.90;;;;;;4984071;28;20051;-85
2021/12/16 10:59:39;;;;;;;44.72;25.52;;;9.50;99.90;;;;;;4984864;28;20448;-86
2021/12/16 11:02:09;;;;;;;51.15;25.42;;;9.50;99.90;;;;;;4986856;28;20048;-85
2021/12/16 11:05:15;;;;;;;50.65;25.80;;;9.50;99.90;;;;;;4984317;28;20051;-86
2021/12/16 11:07:44;;;;;;;46.17;25.40;;;9.50;99.90;;;;;;4971173;28;20472;-85
2021/12/16 11:10:19;;;;;;;44.92;25.42;;;9.50;99.90;;;;;;5003584;28;20087;-86
2021/12/16 11:12:50;;;;;;;45.67;25.35;;;9.60;99.90;;;;;;4986972;28;20048;-85
2021/12/16 11:15:29;;;;;;;46.65;24.75;;;9.50;99.90;;;;;;4981355;28;20082;-83
2021/12/16 11:18:09;;;;;;;48.83;25.98;;;9.60;99.90;;;;;;4998117;28;20051;-86
2021/12/16 11:20:48;;;;;;;47.70;27.25;;;9.60;99.90;;;;;;4978322;28;20438;-85
2021/12/16 11:23:27;;;;;;;43.40;25.50;;;9.60;99.90;;;;;;5009155;28;20807;-85
2021/12/16 11:25:55;;;;;;;43.03;24.10;;;9.60;99.90;;;;;;5004665;28;20051;-85
2021/12/16 11:28:23;;;;;;;40.35;23.65;;;9.60;99.90;;;;;;5008867;28;20434;-85
2021/12/16 11:30:49;;;;;;;40.13;23.15;;;9.50;99.90;;;;;;5003562;28;20048;-85
2021/12/16 11:33:21;;;;;;;43.67;22.30;;;9.60;99.90;;;;;;4989683;28;20444;-84
2021/12/16 11:36:00;;;;;;;39.55;23.33;;;9.50;99.90;;;;;;5006110;28;20056;-84
2021/12/16 11:38:28;;;;;;;38.17;22.95;;;9.50;99.90;;;;;;5001620;28;20279;-82
2021/12/16 11:41:04;;;;;;;39.30;22.17;;;9.50;99.90;;;;;;5002697;28;20074;-84
2021/12/16 11:43:50;;;;;;;44.10;24.02;;;9.50;99.90;;;;;;5005271;28;20150;-85
2021/12/16 11:46:22;;;;;;;47.30;24.42;;;9.50;99.90;;;;;;5005499;28;20166;-85
2021/12/16 11:48:50;;;;;;;42.97;24.17;;;9.50;99.90;;;;;;4999481;28;21128;-84
2021/12/16 11:51:18;;;;;;;47.03;25.25;;;9.50;99.90;;;;;;5005069;28;20925;-84
2021/12/16 11:53:57;;;;;;;52.22;25.70;;;9.50;99.90;;;;;;4998977;28;20039;-85
2021/12/16 11:56:59;;;;;;;50.58;25.80;;;9.50;99.90;;;;;;4989241;28;20450;-84
2021/12/16 11:59:33;;;;;;;48.25;24.73;;;9.60;99.90;;;;;;4934189;28;20144;-85
2021/12/16 12:02:01;;;;;;;49.80;24.90;;;9.60;99.90;;;;;;4982410;28;20047;-86
2021/12/16 12:04:34;;;;;;;51.50;25.73;;;9.60;99.90;;;;;;4989266;28;20492;-84
2021/12/16 12:07:08;;;;;;;43.80;23.90;;;9.60;99.90;;;;;;5004551;28;20056;-84
2021/12/16 12:09:38;;;;;;;48.25;26.00;;;9.60;99.90;;;;;;4999549;28;21001;-86
2021/12/16 12:12:05;;;;;;;47.65;25.98;;;9.60;99.90;;;;;;5005620;28;20055;-86
2021/12/16 12:14:35;;;;;;;50.53;26.73;;;9.60;99.90;;;;;;5007750;28;20470;-86
2021/12/16 12:17:16;;;;;;;51.10;27.38;;;9.60;99.90;;;;;;5005326;28;20497;-85
2021/12/16 12:19:45;;;;;;;49.15;27.17;;;9.70;99.90;;;;;;4988920;28;20504;-85
2021/12/16 12:22:11;;;;;;;50.03;26.10;;;9.70;99.90;;;;;;5004680;28;20138;-85
2021/12/16 12:24:46;;;;;;;51.08;26.65;;;9.70;99.90;;;;;;5007218;28;20046;-83
2021/12/16 12:27:20;;;;;;;45.50;25.45;;;9.70;99.90;;;;;;4999386;28;20429;-84
2021/12/16 12:29:53;;;;;;;51.00;26.23;;;9.70;99.90;;;;;;5006035;28;20210;-84
2021/12/16 12:32:24;;;;;;;48.60;26.02;;;9.70;99.90;;;;;;4985507;28;20055;-85
2021/12/16 12:34:59;;;;;;;54.65;25.42;;;9.70;99.90;;;;;;5003081;28;20047;-86
2021/12/16 12:37:31;;;;;;;53.58;25.70;;;9.70;99.90;;;;;;4987334;28;20468;-85
2021/12/16 12:40:06;;;;;;;49.97;25.67;;;9.70;99.90;;;;;;4982445;28;20304;-86
2021/12/16 12:42:31;;;;;;;51.63;26.17;;;9.70;99.90;;;;;;4998241;28;20126;-85
2021/12/16 12:44:58;;;;;;;51.50;25.38;;;9.70;99.90;;;;;;5008222;28;20376;-85
2021/12/16 12:47:28;;;;;;;48.13;25.67;;;9.70;99.90;;;;;;5001401;28;20453;-87
2021/12/16 12:50:14;;;;;;;48.22;25.33;;;9.70;99.90;;;;;;5007642;28;20559;-85
2021/12/16 12:52:44;;;;;;;49.70;25.17;;;9.70;99.90;;;;;;5003095;28;20138;-82
2021/12/16 12:55:15;;;;;;;52.25;25.75;;;9.70;99.90;;;;;;5000907;28;20101;-86
2021/12/16 12:57:43;;;;;;;50.15;25.08;;;9.70;99.90;;;;;;4976244;28;20554;-83
2021/12/16 13:00:27;;;;;;;55.83;25.88;;;9.70;99.90;;;;;;5001075;28;20044;-84
2021/12/16 13:02:57;;;;;;;53.08;24.55;;;9.70;99.90;;;;;;4977515;28;21170;-84
2021/12/16 13:05:23;;;;;;;52.17;25.08;;;9.70;99.90;;;;;;5003432;28;20051;-84
2021/12/16 13:08:17;;;;;;;47.95;24.85;;;9.60;99.90;;;;;;5000356;28;20051;-85
2021/12/16 13:10:48;;;;;;;51.65;25.17;;;9.70;99.90;;;;;;4982100;28;20051;-84
2021/12/16 13:16:18;;;;;;;56.17;26.02;;;9.70;99.90;;;;;;5026150;28;20040;-84
2021/12/16 13:27:47;;;;;;;48.85;24.17;;;9.60;99.90;;;;;;4942568;28;20468;-85
2021/12/16 13:30:26;;;;;;;53.15;23.88;;;9.60;99.90;;;;;;5014955;28;20055;-87
2021/12/16 13:33:16;;;;;;;50.65;23.80;;;9.60;99.90;;;;;;4992687;28;20047;-85
2021/12/16 13:35:50;;;;;;;57.17;24.05;;;9.60;99.90;;;;;;5009603;28;20044;-85
2021/12/16 13:38:19;;;;;;;48.15;23.35;;;9.60;99.90;;;;;;5009672;28;20113;-85
2021/12/16 13:40:48;;;;;;;48.17;23.85;;;9.60;99.90;;;;;;5013292;28;20496;-86
2021/12/16 13:43:24;;;;;;;54.72;24.77;;;9.60;99.90;;;;;;5007869;28;20058;-86
2021/12/16 13:46:30;;;;;;;53.60;23.90;;;9.60;99.90;;;;;;5002551;28;20079;-86
2021/12/16 14:04:37;;;;;;;59.42;24.25;;;9.50;99.90;;;;;;4968494;28;20120;-86
2021/12/16 14:09:51;;;;;;;51.35;24.83;;;9.40;99.90;;;;;;5004484;28;20261;-86
2021/12/16 14:18:04;;;;;;;55.60;24.60;;;9.40;99.90;;;;;;5006331;28;20139;-86
2021/12/16 14:23:47;;;;;;;61.22;24.77;;;9.40;99.90;;;;;;5013445;28;20509;-85
2021/12/16 14:26:37;;;;;;;55.88;23.80;;;9.40;99.90;;;;;;4990586;28;20055;-85
2021/12/16 14:50:47;;;;;;;60.60;24.67;;;9.30;99.90;;;;;;5006306;28;20067;-84
2021/12/16 14:53:17;;;;;;;63.53;24.17;;;9.30;99.90;;;;;;4985105;28;20057;-84
2021/12/16 14:55:44;;;;;;;65.75;24.90;;;9.30;99.90;;;;;;4997723;28;20055;-85
2021/12/16 14:58:10;;;;;;;56.63;23.08;;;9.20;99.90;;;;;;5017685;28;20079;-86
2021/12/16 15:00:44;;;;;;;53.45;24.05;;;9.30;99.90;;;;;;5010652;28;20378;-86
2021/12/16 15:03:29;;;;;;;58.90;24.10;;;9.30;99.90;;;;;;5016370;28;20124;-85
2021/12/16 15:05:59;;;;;;;57.22;23.15;;;9.30;99.90;;;;;;5011695;28;20803;-85
2021/12/16 15:08:36;;;;;;;63.85;24.77;;;9.30;99.90;;;;;;5011277;28;20052;-86
2021/12/16 15:11:06;;;;;;;67.38;25.65;;;9.30;99.90;;;;;;4997271;28;20043;-85
2021/12/16 15:13:44;;;;;;;63.05;25.38;;;9.30;99.90;;;;;;5012746;28;20089;-83
2021/12/16 15:16:35;;;;;;;66.55;26.95;;;9.30;99.90;;;;;;5006355;28;20043;-84
2021/12/16 15:39:13;;;;;;;66.70;27.58;;;9.20;99.90;;;;;;5005503;28;20085;-85
2021/12/16 15:44:21;;;;;;;82.95;27.42;;;9.10;99.90;;;;;;5014006;28;20163;-85
2021/12/16 15:46:50;;;;;;;66.07;27.30;;;9.10;99.90;;;;;;5009422;28;20079;-85
2021/12/16 15:49:17;;;;;;;73.82;27.95;;;9.10;99.90;;;;;;5012584;28;20050;-85
2021/12/16 15:51:42;;;;;;;72.25;28.13;;;9.10;99.90;;;;;;5012700;28;20046;-84
2021/12/16 15:54:10;;;;;;;80.22;27.85;;;9.10;99.90;;;;;;5015503;28;20043;-85
2021/12/16 15:56:39;;;;;;;73.05;26.98;;;9.10;99.90;;;;;;4994436;28;20973;-85
2021/12/16 15:59:10;;;;;;;70.88;27.73;;;9.10;99.90;;;;;;5014145;28;20044;-85
2021/12/16 16:01:46;;;;;;;77.13;27.48;;;9.10;99.90;;;;;;4988367;28;20084;-85
2021/12/16 16:04:16;;;;;;;67.53;28.77;;;9.10;99.90;;;;;;5014526;28;20449;-83
2021/12/16 16:06:48;;;;;;;63.65;26.85;;;9.10;99.90;;;;;;5011682;28;20078;-84
2021/12/16 16:09:15;;;;;;;64.13;26.38;;;9.10;99.90;;;;;;4993026;28;20863;-84
2021/12/16 16:11:49;;;;;;;68.10;27.50;;;9.10;99.90;;;;;;4997411;28;20044;-84
2021/12/16 16:14:17;;;;;;;68.65;28.08;;;9.00;99.90;;;;;;4992403;28;20078;-84
2021/12/16 16:16:49;;;;;;;80.03;29.25;;;9.00;99.90;;;;;;5004489;28;20827;-84
2021/12/16 16:19:22;;;;;;;89.35;28.85;;;9.10;99.90;;;;;;5009130;28;20043;-85
2021/12/16 16:21:51;;;;;;;94.50;26.75;;;9.00;99.90;;;;;;5009109;28;20055;-84
2021/12/16 16:24:20;;;;;;;67.28;24.60;;;9.00;99.90;;;;;;5005122;28;20272;-84
2021/12/16 16:26:52;;;;;;;61.97;24.92;;;8.90;99.90;;;;;;5007234;28;20730;-84
2021/12/16 16:29:23;;;;;;;73.18;24.55;;;8.90;99.90;;;;;;4990917;28;20039;-84
2021/12/16 16:31:50;;;;;;;66.00;24.45;;;8.90;99.90;;;;;;5004966;28;20051;-84
2021/12/16 16:34:23;;;;;;;62.05;24.67;;;8.90;99.90;;;;;;5003807;28;20474;-84
2021/12/16 16:37:08;;;;;;;90.13;25.63;;;8.90;99.90;;;;;;5002437;28;20047;-83
2021/12/16 16:39:39;;;;;;;52.00;23.40;;;8.80;99.90;;;;;;5003164;28;20052;-84
2021/12/16 16:42:13;;;;;;;49.67;23.30;;;8.80;99.90;;;;;;4990537;28;20058;-84
2021/12/16 16:44:40;;;;;;;50.42;23.27;;;8.80;99.90;;;;;;4998608;28;20051;-84
2021/12/16 16:47:14;;;;;;;46.30;23.70;;;8.80;99.90;;;;;;5000033;28;20048;-84
2021/12/16 16:49:53;;;;;;;54.70;22.55;;;8.80;99.90;;;;;;5001404;28;20518;-84
2021/12/16 16:52:21;;;;;;;55.15;22.58;;;8.80;99.90;;;;;;5006962;28;20057;-84